Time;durP1;ratioP1;P1;durP2;ratioP2;P2;SDS_P1;SDS_P2;PMS_P1;PMS_P2;Temp;Humidity;BMP_temperature;BMP_pressure;BME280_temperature;BME280_humidity;BME280_pressure;Samples;Min_cycle;Max_cycle;Signal;HPM_P1;HPM_P2
2022/03/01 00:01:20;;;;;;;38.40;33.10;;;;;;;-3.25;69.71;99696.00;105946;1280;22704;-84
2022/03/01 00:03:48;;;;;;;37.10;32.90;;;;;;;-3.24;69.59;99696.77;105987;1280;25323;-84
2022/03/01 00:06:16;;;;;;;53.80;48.40;;;;;;;-3.21;69.58;99694.70;105727;1281;24397;-86
2022/03/01 00:08:44;;;;;;;40.30;36.20;;;;;;;-3.15;69.68;99695.76;105741;1281;22560;-84
2022/03/01 00:11:13;;;;;;;37.70;33.50;;;;;;;-3.11;69.83;99695.32;106010;1281;24311;-84
2022/03/01 00:13:41;;;;;;;35.10;31.50;;;;;;;-3.13;69.73;99693.50;106174;1278;22537;-86
2022/03/01 00:16:35;;;;;;;37.70;33.90;;;;;;;-3.13;69.88;99691.59;106149;1281;22638;-84
2022/03/01 00:19:04;;;;;;;36.30;32.60;;;;;;;-3.13;70.06;99693.77;106331;1278;26630;-84
2022/03/01 00:22:12;;;;;;;35.10;31.40;;;;;;;-3.15;70.04;99692.55;106476;1280;22668;-88
2022/03/01 00:29:08;;;;;;;32.60;28.90;;;;;;;-3.26;69.97;99692.81;106025;1278;22691;-84
2022/03/01 00:31:36;;;;;;;32.50;29.10;;;;;;;-3.30;69.94;99694.30;105964;1278;22556;-82
2022/03/01 00:34:04;;;;;;;32.20;28.30;;;;;;;-3.31;69.93;99690.88;105867;1277;22691;-83
2022/03/01 00:36:32;;;;;;;31.10;27.90;;;;;;;-3.26;69.97;99689.52;105932;1278;22627;-83
2022/03/01 00:39:00;;;;;;;32.80;29.30;;;;;;;-3.21;70.10;99686.49;105661;1281;24543;-83
2022/03/01 00:41:28;;;;;;;36.40;32.70;;;;;;;-3.17;70.24;99689.05;106089;1281;24254;-82
2022/03/01 00:43:56;;;;;;;31.20;27.90;;;;;;;-3.16;70.32;99687.41;105932;1277;23104;-84
2022/03/01 00:46:26;;;;;;;30.90;27.60;;;;;;;-3.15;70.44;99688.71;105844;1278;23512;-83
2022/03/01 00:49:00;;;;;;;30.10;26.90;;;;;;;-3.14;70.56;99686.63;106344;1278;25422;-85
2022/03/01 00:51:29;;;;;;;33.90;30.30;;;;;;;-3.14;70.55;99688.56;105885;1278;23951;-86
2022/03/01 00:54:02;;;;;;;30.50;27.10;;;;;;;-3.14;70.67;99687.05;105563;1281;22761;-84
2022/03/01 00:56:31;;;;;;;33.70;28.10;;;;;;;-3.16;70.69;99689.61;106314;1278;23932;-84
2022/03/01 00:59:00;;;;;;;32.70;26.50;;;;;;;-3.13;70.67;99687.27;105986;1277;22652;-81
2022/03/01 01:01:30;;;;;;;29.70;26.40;;;;;;;-3.08;70.57;99686.15;106020;1278;25263;-85
2022/03/01 01:03:58;;;;;;;29.30;26.10;;;;;;;-3.02;70.56;99682.31;106064;1278;22783;-84
2022/03/01 01:06:59;;;;;;;33.80;30.10;;;;;;;-2.99;70.51;99681.42;105955;1278;24269;-86
2022/03/01 01:09:26;;;;;;;32.00;28.40;;;;;;;-2.95;70.70;99677.06;104909;1287;24329;-84
2022/03/01 01:11:58;;;;;;;33.10;29.60;;;;;;;-2.95;70.67;99674.59;105223;1287;22584;-85
2022/03/01 01:14:26;;;;;;;38.60;34.50;;;;;;;-2.95;70.70;99673.86;105191;1287;24324;-84
2022/03/01 01:16:54;;;;;;;35.80;32.10;;;;;;;-2.94;70.78;99677.13;105624;1287;25553;-85
2022/03/01 01:19:22;;;;;;;35.00;29.80;;;;;;;-2.94;70.84;99680.98;106002;1287;24166;-87
2022/03/01 01:24:39;;;;;;;41.50;37.20;;;;;;;-2.98;70.70;99680.80;106540;1286;170511;-83
2022/03/01 01:27:07;;;;;;;39.30;35.20;;;;;;;-3.01;70.79;99679.50;107574;1286;24638;-83
2022/03/01 01:29:35;;;;;;;48.80;42.60;;;;;;;-3.01;70.57;99678.84;106102;1287;22667;-83
2022/03/01 01:32:03;;;;;;;40.90;36.70;;;;;;;-3.01;70.49;99676.24;105040;1287;22652;-83
2022/03/01 01:34:31;;;;;;;40.20;35.90;;;;;;;-3.01;70.59;99674.76;105438;1286;25559;-84
2022/03/01 01:36:59;;;;;;;36.80;32.90;;;;;;;-3.00;70.69;99676.34;105787;1286;22823;-83
2022/03/01 01:39:27;;;;;;;36.50;32.90;;;;;;;-3.00;70.74;99676.64;105986;1285;22896;-86
2022/03/01 01:41:57;;;;;;;36.00;32.30;;;;;;;-3.00;70.70;99676.29;105898;1287;22635;-89
2022/03/01 01:44:25;;;;;;;32.90;29.40;;;;;;;-3.02;70.74;99677.17;105479;1285;23862;-86
2022/03/01 01:46:53;;;;;;;36.30;30.60;;;;;;;-3.02;70.74;99677.94;106576;1278;22762;-83
2022/03/01 01:49:21;;;;;;;30.40;27.00;;;;;;;-3.02;70.78;99678.82;106279;1278;22781;-80
2022/03/01 01:51:49;;;;;;;29.80;26.80;;;;;;;-3.03;70.82;99678.92;105981;1278;22598;-82
2022/03/01 01:54:17;;;;;;;28.60;25.60;;;;;;;-3.04;70.81;99675.48;105821;1278;25360;-84
2022/03/01 01:56:46;;;;;;;27.50;24.70;;;;;;;-3.03;70.78;99677.64;106069;1278;22553;-81
2022/03/01 01:59:14;;;;;;;27.20;24.20;;;;;;;-3.00;70.63;99677.89;105962;1277;22616;-80
2022/03/01 02:01:42;;;;;;;30.90;25.90;;;;;;;-3.00;70.59;99675.75;105970;1277;24298;-80
2022/03/01 02:04:11;;;;;;;30.70;27.40;;;;;;;-3.00;70.78;99672.08;105802;1278;22556;-81
2022/03/01 02:06:54;;;;;;;30.10;25.90;;;;;;;-3.00;70.81;99673.64;106247;1277;22680;-80
2022/03/01 02:09:22;;;;;;;30.50;27.00;;;;;;;-3.00;70.87;99668.40;106073;1278;25445;-81
2022/03/01 02:11:54;;;;;;;29.60;26.60;;;;;;;-3.02;70.93;99668.60;106115;1278;23993;-80
2022/03/01 02:14:22;;;;;;;31.20;28.00;;;;;;;-3.03;70.79;99668.77;106086;1278;22732;-80
2022/03/01 02:16:50;;;;;;;29.30;26.10;;;;;;;-3.05;70.84;99667.69;105692;1280;24316;-79
2022/03/01 02:19:18;;;;;;;32.60;29.30;;;;;;;-3.08;70.82;99663.84;105877;1277;25490;-80
2022/03/01 02:21:48;;;;;;;30.80;27.50;;;;;;;-3.12;70.78;99665.29;105844;1278;25365;-81
2022/03/01 02:24:18;;;;;;;28.30;25.20;;;;;;;-3.14;70.95;99665.60;105814;1280;25438;-81
2022/03/01 02:26:46;;;;;;;28.80;25.80;;;;;;;-3.15;70.81;99668.45;106025;1277;25964;-80
2022/03/01 02:29:14;;;;;;;32.40;28.90;;;;;;;-3.12;70.77;99669.05;105759;1280;24086;-80
2022/03/01 02:31:42;;;;;;;30.40;27.10;;;;;;;-3.09;70.82;99667.80;106039;1277;22683;-80
2022/03/01 02:34:10;;;;;;;30.90;27.80;;;;;;;-3.07;70.94;99672.11;106126;1277;23500;-81
2022/03/01 02:36:38;;;;;;;32.40;29.00;;;;;;;-3.04;71.04;99673.26;106007;1277;23063;-81
2022/03/01 02:39:06;;;;;;;31.00;27.60;;;;;;;-3.02;71.16;99673.75;106009;1278;22555;-80
2022/03/01 02:41:38;;;;;;;32.10;27.80;;;;;;;-3.02;71.12;99676.52;105679;1281;22688;-80
2022/03/01 02:44:07;;;;;;;31.70;28.30;;;;;;;-3.03;70.99;99678.40;106244;1277;23216;-79
2022/03/01 02:46:38;;;;;;;29.80;26.60;;;;;;;-3.05;71.00;99680.54;106078;1278;22552;-79
2022/03/01 02:49:08;;;;;;;32.40;28.80;;;;;;;-3.07;70.91;99678.30;105920;1277;24944;-81
2022/03/01 02:51:39;;;;;;;39.00;35.10;;;;;;;-3.09;71.02;99669.25;105801;1278;25274;-82
2022/03/01 02:54:08;;;;;;;32.00;28.80;;;;;;;-3.12;70.86;99670.40;106006;1277;22705;-78
2022/03/01 02:56:39;;;;;;;30.30;27.10;;;;;;;-3.16;70.85;99669.16;106059;1277;24521;-78
2022/03/01 02:59:08;;;;;;;28.90;25.90;;;;;;;-3.20;70.76;99672.32;106063;1277;22605;-79
2022/03/01 03:01:36;;;;;;;33.50;28.20;;;;;;;-3.22;70.71;99670.20;105671;1278;22692;-80
2022/03/01 03:04:04;;;;;;;32.20;29.00;;;;;;;-3.24;70.81;99667.41;105949;1277;24183;-87
2022/03/01 03:06:33;;;;;;;32.50;28.90;;;;;;;-3.24;70.94;99665.23;105707;1278;22641;-88
2022/03/01 03:09:00;;;;;;;29.50;26.40;;;;;;;-3.27;70.94;99662.64;106148;1277;25593;-83
2022/03/01 03:11:28;;;;;;;29.70;26.60;;;;;;;-3.30;70.99;99660.79;105856;1277;24450;-86
2022/03/01 03:13:56;;;;;;;33.00;28.70;;;;;;;-3.33;71.17;99661.98;105802;1277;22564;-87
2022/03/01 03:16:27;;;;;;;36.90;32.60;;;;;;;-3.38;70.99;99663.00;105869;1278;25761;-84
2022/03/01 03:18:55;;;;;;;34.60;31.20;;;;;;;-3.41;71.08;99658.30;106033;1277;22668;-86
2022/03/01 03:21:24;;;;;;;35.20;31.70;;;;;;;-3.45;71.02;99659.95;105944;1278;25380;-86
2022/03/01 03:23:52;;;;;;;32.90;29.60;;;;;;;-3.50;71.04;99656.70;106052;1277;23449;-82
2022/03/01 03:26:20;;;;;;;31.60;28.50;;;;;;;-3.54;71.10;99654.70;105863;1278;26725;-85
2022/03/01 03:28:48;;;;;;;30.70;27.60;;;;;;;-3.56;71.00;99655.63;105878;1277;22577;-85
2022/03/01 03:31:16;;;;;;;31.60;28.30;;;;;;;-3.55;71.02;99650.30;105828;1277;22783;-81
2022/03/01 03:33:47;;;;;;;34.60;30.90;;;;;;;-3.56;70.84;99647.96;105868;1278;22691;-84
2022/03/01 03:36:15;;;;;;;33.70;30.20;;;;;;;-3.58;71.09;99646.23;105945;1278;22690;-84
2022/03/01 03:38:45;;;;;;;31.60;28.40;;;;;;;-3.60;71.15;99646.15;106133;1277;24354;-81
2022/03/01 03:41:17;;;;;;;31.90;28.50;;;;;;;-3.64;71.21;99647.27;105795;1280;22657;-83
2022/03/01 03:43:45;;;;;;;35.60;32.00;;;;;;;-3.69;71.11;99643.27;105886;1279;24315;-83
2022/03/01 03:46:13;;;;;;;34.10;30.60;;;;;;;-3.78;71.04;99640.98;105951;1279;22861;-83
2022/03/01 03:48:43;;;;;;;32.40;29.10;;;;;;;-3.85;70.98;99643.13;105718;1280;22994;-85
2022/03/01 03:51:11;;;;;;;31.90;28.50;;;;;;;-3.92;71.07;99643.48;105576;1279;22560;-81
2022/03/01 03:53:38;;;;;;;30.60;27.40;;;;;;;-3.96;71.28;99635.89;105903;1279;24243;-79
2022/03/01 03:56:09;;;;;;;30.70;25.50;;;;;;;-3.99;71.23;99632.80;105659;1280;23171;-80
2022/03/01 03:58:37;;;;;;;33.40;29.90;;;;;;;-3.99;71.33;99630.33;105595;1282;22906;-79
2022/03/01 04:01:08;;;;;;;31.40;27.90;;;;;;;-3.96;71.37;99633.02;106044;1280;22819;-78
2022/03/01 04:03:37;;;;;;;34.50;30.90;;;;;;;-3.94;71.17;99632.33;105763;1279;24255;-80
2022/03/01 04:06:07;;;;;;;32.50;29.00;;;;;;;-3.94;71.35;99634.02;105818;1279;22628;-80
2022/03/01 04:08:34;;;;;;;38.90;35.00;;;;;;;-3.95;71.32;99635.23;105866;1279;24291;-80
2022/03/01 04:11:02;;;;;;;35.50;31.90;;;;;;;-4.00;71.19;99628.05;105963;1280;23289;-79
2022/03/01 04:13:33;;;;;;;33.90;30.60;;;;;;;-4.12;70.99;99630.86;106078;1279;22615;-79
2022/03/01 04:16:02;;;;;;;41.40;37.40;;;;;;;-4.23;71.16;99629.23;105971;1280;25415;-80
2022/03/01 04:18:32;;;;;;;38.90;35.10;;;;;;;-4.32;71.34;99625.98;105528;1279;22537;-80
2022/03/01 04:21:04;;;;;;;40.60;36.70;;;;;;;-4.42;71.40;99625.23;105647;1279;22737;-80
2022/03/01 04:23:32;;;;;;;37.90;32.90;;;;;;;-4.51;71.39;99619.48;105742;1279;22690;-80
2022/03/01 04:26:00;;;;;;;33.50;30.10;;;;;;;-4.58;71.40;99620.02;105553;1280;24372;-79
2022/03/01 04:28:28;;;;;;;34.70;31.00;;;;;;;-4.65;71.24;99613.08;105550;1280;23318;-79
2022/03/01 04:30:58;;;;;;;35.40;31.60;;;;;;;-4.70;71.16;99614.48;105810;1280;22703;-80
2022/03/01 04:33:27;;;;;;;38.30;34.50;;;;;;;-4.82;71.06;99615.65;105841;1279;22513;-81
2022/03/01 04:35:58;;;;;;;37.90;34.20;;;;;;;-4.97;71.35;99611.09;105784;1279;22709;-79
2022/03/01 04:38:29;;;;;;;38.90;35.20;;;;;;;-5.11;71.23;99604.96;105632;1280;22621;-80
2022/03/01 04:40:57;;;;;;;39.90;35.80;;;;;;;-5.31;71.38;99596.91;105403;1280;22884;-79
2022/03/01 04:43:26;;;;;;;39.40;35.70;;;;;;;-5.35;71.59;99608.31;105793;1279;23015;-82
2022/03/01 04:45:55;;;;;;;38.80;34.70;;;;;;;-5.45;71.82;99604.15;105838;1279;22695;-79
2022/03/01 04:48:25;;;;;;;35.40;31.80;;;;;;;-5.53;71.71;99605.83;105820;1279;24491;-79
2022/03/01 04:50:53;;;;;;;39.70;35.50;;;;;;;-5.59;71.75;99603.67;105594;1280;24240;-79
2022/03/01 04:53:21;;;;;;;45.40;40.60;;;;;;;-5.62;71.63;99604.98;105824;1279;24351;-81
2022/03/01 04:55:51;;;;;;;48.50;43.50;;;;;;;-5.64;71.74;99601.73;105414;1280;24372;-81
2022/03/01 04:58:19;;;;;;;44.90;40.00;;;;;;;-5.68;71.65;99601.61;105843;1279;22622;-82
2022/03/01 05:00:47;;;;;;;42.80;38.40;;;;;;;-5.74;71.81;99603.05;105621;1279;22745;-82
2022/03/01 05:03:19;;;;;;;49.80;44.80;;;;;;;-5.80;72.06;99605.27;105961;1280;22537;-80
2022/03/01 05:05:50;;;;;;;66.40;57.40;;;;;;;-5.87;72.28;99602.61;105775;1279;22544;-80
2022/03/01 05:08:18;;;;;;;58.70;52.30;;;;;;;-5.92;72.25;99603.18;105611;1280;22615;-80
2022/03/01 05:10:45;;;;;;;49.80;44.50;;;;;;;-5.93;72.15;99605.91;105875;1279;24279;-78
2022/03/01 05:13:14;;;;;;;47.00;42.20;;;;;;;-5.95;72.27;99602.37;105815;1279;22546;-81
2022/03/01 05:15:42;;;;;;;49.90;44.60;;;;;;;-5.97;72.18;99599.61;105754;1279;24729;-81
2022/03/01 05:18:10;;;;;;;50.50;45.60;;;;;;;-6.00;72.22;99599.35;105850;1279;24553;-79
2022/03/01 05:20:41;;;;;;;52.90;47.70;;;;;;;-6.02;72.60;99598.02;105699;1279;24330;-79
2022/03/01 05:23:09;;;;;;;58.10;52.10;;;;;;;-6.03;72.78;99594.00;105882;1279;24697;-79
2022/03/01 05:25:38;;;;;;;58.20;52.20;;;;;;;-6.01;72.98;99596.06;105806;1279;22546;-79
2022/03/01 05:28:09;;;;;;;49.70;44.60;;;;;;;-6.00;73.03;99595.48;105801;1279;25545;-78
2022/03/01 05:30:40;;;;;;;60.60;54.30;;;;;;;-6.03;72.96;99593.38;105440;1280;22878;-83
2022/03/01 05:33:08;;;;;;;59.60;51.00;;;;;;;-6.08;72.75;99592.48;105795;1280;24542;-80
2022/03/01 05:35:36;;;;;;;63.00;54.40;;;;;;;-6.05;72.92;99596.23;105612;1282;22889;-79
2022/03/01 05:38:09;;;;;;;60.30;47.30;;;;;;;-6.01;72.84;99599.93;105723;1279;25409;-81
2022/03/01 05:40:41;;;;;;;55.60;49.40;;;;;;;-5.99;72.82;99598.53;105868;1279;22538;-80
2022/03/01 05:43:09;;;;;;;57.40;51.10;;;;;;;-5.97;73.24;99600.60;105763;1279;25438;-81
2022/03/01 05:45:41;;;;;;;53.20;45.70;;;;;;;-5.91;73.24;99598.32;105880;1279;22609;-79
2022/03/01 05:48:09;;;;;;;54.10;48.60;;;;;;;-5.85;73.56;99599.97;105853;1279;25395;-78
2022/03/01 05:50:40;;;;;;;52.60;47.30;;;;;;;-5.83;73.27;99599.26;105906;1279;22556;-78
2022/03/01 05:53:08;;;;;;;63.20;56.90;;;;;;;-5.87;73.02;99596.29;105605;1280;22692;-78
2022/03/01 05:55:39;;;;;;;47.60;42.50;;;;;;;-5.89;73.59;99593.89;105631;1280;24223;-81
2022/03/01 05:58:06;;;;;;;47.40;42.50;;;;;;;-5.88;73.49;99597.67;106089;1279;24227;-79
2022/03/01 06:00:37;;;;;;;43.30;38.70;;;;;;;-5.81;73.58;99601.35;105839;1279;25376;-79
2022/03/01 06:03:05;;;;;;;50.20;45.00;;;;;;;-5.72;73.69;99599.15;105557;1280;22575;-78
2022/03/01 06:05:35;;;;;;;54.70;49.50;;;;;;;-5.61;73.83;99603.70;105880;1279;22602;-79
2022/03/01 06:08:06;;;;;;;54.70;49.00;;;;;;;-5.49;74.48;99603.86;105612;1280;25998;-78
2022/03/01 06:10:35;;;;;;;52.70;47.80;;;;;;;-5.41;74.15;99603.64;105832;1279;24318;-78
2022/03/01 06:13:05;;;;;;;52.70;47.40;;;;;;;-5.36;74.21;99611.23;105834;1279;25322;-79
2022/03/01 06:15:33;;;;;;;46.10;41.40;;;;;;;-5.34;74.15;99608.69;105782;1279;22672;-78
2022/03/01 06:18:04;;;;;;;51.30;45.60;;;;;;;-5.30;74.11;99611.84;105848;1279;22694;-78
2022/03/01 06:20:32;;;;;;;54.20;48.50;;;;;;;-5.25;74.01;99609.56;105641;1280;23381;-80
2022/03/01 06:23:01;;;;;;;52.50;45.20;;;;;;;-5.13;74.27;99609.92;105982;1279;25382;-81
2022/03/01 06:25:29;;;;;;;49.90;44.60;;;;;;;-5.02;74.61;99607.02;105627;1280;25462;-79
2022/03/01 06:27:56;;;;;;;45.40;40.80;;;;;;;-4.88;74.76;99608.80;105879;1279;22661;-80
2022/03/01 06:30:28;;;;;;;45.30;40.30;;;;;;;-4.78;74.81;99608.98;105869;1279;22629;-78
2022/03/01 06:32:56;;;;;;;50.60;45.10;;;;;;;-4.65;74.93;99607.45;105829;1279;22550;-79
2022/03/01 06:35:23;;;;;;;44.40;38.60;;;;;;;-4.52;74.96;99609.77;105797;1279;22707;-77
2022/03/01 06:37:53;;;;;;;42.50;38.20;;;;;;;-4.39;74.91;99605.23;105688;1280;22664;-78
2022/03/01 06:40:23;;;;;;;43.10;38.70;;;;;;;-4.21;75.07;99607.09;105692;1280;25230;-77
2022/03/01 06:42:51;;;;;;;50.20;36.70;;;;;;;-4.02;74.88;99606.34;105836;1279;24335;-79
2022/03/01 06:45:19;;;;;;;39.10;33.40;;;;;;;-3.84;75.08;99610.01;105389;1280;24500;-79
2022/03/01 06:47:51;;;;;;;45.60;37.10;;;;;;;-3.66;75.22;99612.16;105409;1280;24315;-80
2022/03/01 06:50:20;;;;;;;38.40;34.40;;;;;;;-3.48;75.39;99611.27;105380;1279;25448;-78
2022/03/01 06:52:48;;;;;;;39.90;35.60;;;;;;;-3.33;75.29;99611.33;105843;1279;23432;-79
2022/03/01 06:55:16;;;;;;;46.90;40.60;;;;;;;-3.18;75.33;99612.00;105784;1279;25329;-78
2022/03/01 06:57:45;;;;;;;41.70;37.40;;;;;;;-3.03;75.22;99613.16;105641;1279;24279;-78
2022/03/01 07:00:15;;;;;;;34.80;30.30;;;;;;;-2.89;75.23;99607.42;105593;1279;25376;-81
2022/03/01 07:02:43;;;;;;;29.20;26.20;;;;;;;-2.73;75.14;99617.26;105762;1279;25390;-79
2022/03/01 07:05:13;;;;;;;31.60;28.30;;;;;;;-2.55;75.07;99612.64;105375;1279;25445;-79
2022/03/01 07:07:41;;;;;;;34.40;30.90;;;;;;;-2.37;74.96;99611.83;105762;1279;25274;-79
2022/03/01 07:10:12;;;;;;;33.10;29.70;;;;;;;-2.20;75.03;99619.41;105699;1279;24558;-78
2022/03/01 07:12:42;;;;;;;30.40;27.20;;;;;;;-2.05;75.10;99623.89;105895;1279;22710;-78
2022/03/01 07:15:11;;;;;;;27.80;24.90;;;;;;;-1.93;74.96;99624.69;105487;1280;22634;-79
2022/03/01 07:17:45;;;;;;;28.10;25.20;;;;;;;-1.81;74.90;99626.05;105824;1279;22697;-79
2022/03/01 07:20:14;;;;;;;30.20;25.30;;;;;;;-1.70;74.93;99626.67;105662;1279;25319;-79
2022/03/01 07:22:42;;;;;;;29.50;26.60;;;;;;;-1.60;74.72;99624.65;105713;1279;22679;-79
2022/03/01 07:25:10;;;;;;;26.90;24.30;;;;;;;-1.51;74.58;99624.80;105678;1279;25431;-79
2022/03/01 07:27:51;;;;;;;28.40;25.20;;;;;;;-1.42;74.66;99630.31;105698;1280;24407;-80
2022/03/01 07:30:20;;;;;;;25.80;22.90;;;;;;;-1.32;74.51;99639.95;105980;1280;22571;-80
2022/03/01 07:32:54;;;;;;;25.80;21.80;;;;;;;-1.24;74.34;99640.27;106029;1279;25256;-80
2022/03/01 07:35:23;;;;;;;29.00;21.90;;;;;;;-1.15;74.31;99635.95;105364;1279;22548;-79
2022/03/01 07:37:53;;;;;;;22.80;20.20;;;;;;;-1.02;74.19;99636.39;105549;1279;22559;-80
2022/03/01 07:40:23;;;;;;;23.60;21.20;;;;;;;-0.90;74.14;99635.58;105723;1279;22807;-80
2022/03/01 07:42:53;;;;;;;21.80;19.50;;;;;;;-0.83;74.06;99633.58;106020;1279;25432;-80
2022/03/01 07:45:21;;;;;;;23.00;20.70;;;;;;;-0.75;74.04;99629.60;105946;1279;22617;-79
2022/03/01 07:47:51;;;;;;;22.60;18.80;;;;;;;-0.67;74.07;99627.61;105662;1279;26131;-80
2022/03/01 07:50:20;;;;;;;21.20;18.80;;;;;;;-0.60;73.99;99624.31;105646;1279;25389;-80
2022/03/01 07:53:50;;;;;;;26.70;19.60;;;;;;;-0.52;73.69;99628.41;105695;1280;22551;-79
2022/03/01 07:56:39;;;;;;;21.20;19.20;;;;;;;-0.43;73.71;99620.52;105858;1279;23290;-79
2022/03/01 07:59:08;;;;;;;25.40;22.80;;;;;;;-0.36;73.45;99627.17;105915;1279;25426;-77
2022/03/01 08:01:35;;;;;;;31.50;26.20;;;;;;;-0.28;73.47;99627.77;105645;1280;22886;-80
2022/03/01 08:04:04;;;;;;;31.90;26.70;;;;;;;-0.21;73.40;99623.75;105938;1279;25492;-80
2022/03/01 08:06:34;;;;;;;29.10;24.60;;;;;;;-0.15;73.36;99627.79;105832;1279;25341;-80
2022/03/01 08:09:08;;;;;;;39.50;30.60;;;;;;;-0.09;73.18;99624.38;105948;1279;22543;-78
2022/03/01 08:11:35;;;;;;;40.40;33.80;;;;;;;-0.06;72.94;99624.36;105900;1279;25390;-80
2022/03/01 08:14:07;;;;;;;34.10;29.30;;;;;;;-0.03;72.98;99621.19;105894;1279;22534;-81
2022/03/01 08:16:35;;;;;;;46.50;31.80;;;;;;;0.04;72.94;99606.91;105495;1280;24422;-80
2022/03/01 08:19:06;;;;;;;36.40;29.10;;;;;;;0.18;73.18;99602.27;105925;1279;24848;-80
2022/03/01 08:22:14;;;;;;;34.10;27.00;;;;;;;0.31;73.15;99604.27;105661;1280;22550;-79
2022/03/01 08:25:02;;;;;;;29.60;26.10;;;;;;;0.46;72.87;99601.95;105800;1279;22535;-78
2022/03/01 08:27:33;;;;;;;30.60;25.90;;;;;;;0.52;72.68;99597.36;105806;1279;22697;-80
2022/03/01 08:30:02;;;;;;;32.70;29.20;;;;;;;0.60;72.68;99594.44;105780;1280;23105;-79
2022/03/01 08:32:30;;;;;;;31.20;27.70;;;;;;;0.66;72.37;99594.77;105914;1279;22700;-80
2022/03/01 08:34:58;;;;;;;27.80;24.70;;;;;;;0.72;72.43;99588.65;106008;1279;22616;-80
2022/03/01 08:37:26;;;;;;;30.80;24.60;;;;;;;0.81;72.44;99582.30;105571;1279;22548;-79
2022/03/01 08:39:54;;;;;;;24.00;21.40;;;;;;;0.87;72.13;99579.20;105708;1279;22761;-80
2022/03/01 08:42:22;;;;;;;22.60;20.20;;;;;;;0.91;72.08;99574.82;105857;1279;25326;-80
2022/03/01 08:44:50;;;;;;;24.80;22.10;;;;;;;0.93;71.97;99576.46;105464;1280;22623;-80
2022/03/01 08:47:18;;;;;;;24.10;19.80;;;;;;;0.95;71.73;99576.61;105879;1279;24349;-78
2022/03/01 08:49:47;;;;;;;18.60;16.80;;;;;;;0.97;71.16;99576.20;105658;1279;22705;-79
2022/03/01 08:52:15;;;;;;;21.10;17.30;;;;;;;0.98;70.91;99568.05;105665;1279;24419;-79
2022/03/01 08:54:42;;;;;;;27.60;16.30;;;;;;;1.03;71.28;99566.23;105527;1279;23029;-78
2022/03/01 08:57:11;;;;;;;34.00;18.10;;;;;;;1.08;71.17;99566.63;105775;1279;25488;-79
2022/03/01 08:59:38;;;;;;;21.60;19.20;;;;;;;1.15;71.17;99564.13;105919;1279;24482;-79
2022/03/01 09:02:06;;;;;;;25.00;20.30;;;;;;;1.21;70.82;99563.96;105906;1279;25563;-81
2022/03/01 09:04:34;;;;;;;21.50;19.30;;;;;;;1.25;70.87;99564.49;105981;1279;24078;-81
2022/03/01 09:07:05;;;;;;;24.00;21.50;;;;;;;1.31;70.77;99566.26;105910;1279;22550;-80
2022/03/01 09:09:36;;;;;;;17.00;15.10;;;;;;;1.37;70.57;99559.81;105816;1279;22559;-85
2022/03/01 09:12:04;;;;;;;16.00;14.40;;;;;;;1.43;70.24;99559.31;105704;1279;25443;-82
2022/03/01 09:14:35;;;;;;;15.40;10.00;;;;;;;1.49;69.67;99550.50;105641;1279;25434;-81
2022/03/01 09:17:05;;;;;;;11.20;8.50;;;;;;;1.51;68.50;99548.88;105828;1279;24985;-81
2022/03/01 09:19:36;;;;;;;13.90;8.50;;;;;;;1.53;68.57;99549.41;105999;1279;24324;-81
2022/03/01 09:22:04;;;;;;;16.10;10.30;;;;;;;1.58;68.10;99556.39;106178;1280;25345;-82
2022/03/01 09:24:32;;;;;;;11.50;10.30;;;;;;;1.62;66.96;99552.71;106011;1281;23904;-82
2022/03/01 09:27:03;;;;;;;16.40;10.00;;;;;;;1.65;67.18;99547.45;105766;1281;25612;-82
2022/03/01 09:29:32;;;;;;;43.50;12.50;;;;;;;1.69;65.62;99543.63;106131;1281;24454;-83
2022/03/01 09:32:04;;;;;;;20.10;8.70;;;;;;;1.76;66.40;99545.10;106331;1280;22486;-79
2022/03/01 09:34:32;;;;;;;11.50;8.40;;;;;;;1.85;67.02;99546.97;106204;1279;25537;-81
2022/03/01 09:37:03;;;;;;;9.20;8.30;;;;;;;1.93;66.20;99544.61;106312;1279;24248;-82
2022/03/01 09:39:32;;;;;;;13.20;10.20;;;;;;;2.00;66.25;99537.70;106037;1280;22775;-82
2022/03/01 09:42:00;;;;;;;14.30;11.30;;;;;;;2.06;65.91;99533.83;106163;1280;24293;-82
2022/03/01 09:44:32;;;;;;;12.90;10.10;;;;;;;2.15;66.02;99525.08;106299;1280;22743;-82
2022/03/01 09:47:00;;;;;;;12.90;9.80;;;;;;;2.21;65.70;99525.94;106085;1280;22600;-82
2022/03/01 09:49:31;;;;;;;10.50;9.20;;;;;;;2.27;65.27;99520.42;106237;1280;23337;-82
2022/03/01 09:51:59;;;;;;;12.10;9.00;;;;;;;2.34;65.41;99517.39;106219;1280;24515;-82
2022/03/01 09:54:28;;;;;;;12.80;9.30;;;;;;;2.42;65.38;99518.53;106114;1280;22630;-82
2022/03/01 09:56:57;;;;;;;10.50;8.20;;;;;;;2.49;65.54;99511.33;106119;1278;26709;-82
2022/03/01 09:59:25;;;;;;;14.70;10.70;;;;;;;2.58;64.94;99522.08;105912;1278;25436;-82
2022/03/01 10:01:57;;;;;;;16.40;14.20;;;;;;;2.67;65.17;99522.43;106096;1278;23184;-82
2022/03/01 10:04:25;;;;;;;15.60;13.30;;;;;;;2.77;64.98;99522.08;106278;1277;22705;-83
2022/03/01 10:06:55;;;;;;;15.70;11.60;;;;;;;2.84;64.59;99521.74;106196;1277;22548;-82
2022/03/01 10:09:26;;;;;;;28.30;11.80;;;;;;;2.90;63.26;99521.44;106088;1277;25488;-82
2022/03/01 10:11:54;;;;;;;12.00;9.80;;;;;;;2.95;62.88;99518.48;106238;1277;22594;-82
2022/03/01 10:14:30;;;;;;;13.50;11.20;;;;;;;2.99;63.21;99512.64;106253;1278;22586;-82
2022/03/01 10:16:58;;;;;;;10.80;9.50;;;;;;;3.05;62.75;99512.05;106267;1277;26419;-81
2022/03/01 10:19:30;;;;;;;15.40;11.60;;;;;;;3.08;62.65;99512.05;106216;1277;25479;-81
2022/03/01 10:22:03;;;;;;;20.30;10.10;;;;;;;3.13;62.32;99506.58;106227;1277;22732;-81
2022/03/01 10:24:31;;;;;;;12.20;9.60;;;;;;;3.19;62.18;99505.33;106153;1278;24552;-82
2022/03/01 10:27:02;;;;;;;9.90;8.90;;;;;;;3.23;61.26;99508.14;106238;1277;25493;-81
2022/03/01 10:29:47;;;;;;;15.00;9.40;;;;;;;3.28;61.91;99501.15;106060;1277;25388;-82
2022/03/01 10:32:15;;;;;;;11.80;10.40;;;;;;;3.37;61.67;99497.09;106083;1278;25327;-81
2022/03/01 10:35:02;;;;;;;14.10;10.30;;;;;;;3.46;61.59;99499.14;106293;1277;25716;-81
2022/03/01 10:37:33;;;;;;;17.60;15.80;;;;;;;3.58;61.68;99500.43;106167;1278;25500;-82
2022/03/01 10:40:19;;;;;;;15.70;13.60;;;;;;;3.64;61.14;99495.52;106320;1278;22861;-83
2022/03/01 10:43:03;;;;;;;15.10;12.40;;;;;;;3.70;59.95;99495.98;106301;1277;24817;-83
2022/03/01 10:45:32;;;;;;;14.30;12.80;;;;;;;3.73;58.45;99497.46;106326;1277;24817;-83
2022/03/01 10:48:50;;;;;;;16.90;15.30;;;;;;;3.74;59.51;99493.98;106328;1277;24247;-81
2022/03/01 10:51:19;;;;;;;16.30;14.70;;;;;;;3.79;59.34;99484.51;106313;1278;24083;-81
2022/03/01 10:53:47;;;;;;;20.50;15.00;;;;;;;3.83;59.63;99482.14;106230;1277;22640;-79
2022/03/01 10:56:16;;;;;;;17.50;15.70;;;;;;;3.89;59.38;99472.46;106241;1277;25277;-81
2022/03/01 10:58:44;;;;;;;14.90;13.30;;;;;;;3.97;59.56;99471.23;106295;1277;22570;-82
2022/03/01 11:01:13;;;;;;;15.20;13.40;;;;;;;4.08;59.25;99461.60;106107;1279;22681;-81
2022/03/01 11:03:41;;;;;;;12.70;11.50;;;;;;;4.19;58.91;99452.20;106228;1279;22582;-81
2022/03/01 11:06:11;;;;;;;15.10;13.60;;;;;;;4.27;58.77;99451.38;106074;1279;25497;-81
2022/03/01 11:08:41;;;;;;;13.50;11.40;;;;;;;4.29;55.95;99452.72;106195;1277;24241;-81
2022/03/01 11:11:10;;;;;;;12.90;10.30;;;;;;;4.27;57.01;99454.02;106193;1277;22578;-80
2022/03/01 11:13:41;;;;;;;13.00;11.40;;;;;;;4.28;56.89;99444.48;106042;1278;22843;-81
2022/03/01 11:16:14;;;;;;;12.20;10.90;;;;;;;4.29;55.96;99439.05;106126;1278;22771;-80
2022/03/01 11:19:10;;;;;;;10.90;9.80;;;;;;;4.31;56.37;99434.06;106146;1277;24289;-81
2022/03/01 11:21:43;;;;;;;10.90;9.80;;;;;;;4.32;55.65;99437.30;106095;1280;22687;-82
2022/03/01 11:24:14;;;;;;;10.20;9.20;;;;;;;4.30;55.99;99425.48;106194;1278;25499;-83
2022/03/01 11:26:42;;;;;;;14.10;12.60;;;;;;;4.40;56.88;99424.45;106022;1278;25338;-83
2022/03/01 11:29:12;;;;;;;14.50;9.80;;;;;;;4.50;56.55;99421.88;106081;1277;22771;-82
2022/03/01 11:31:43;;;;;;;10.20;9.10;;;;;;;4.57;55.07;99421.48;106411;1278;22608;-81
2022/03/01 11:34:20;;;;;;;10.30;9.00;;;;;;;4.60;54.62;99423.70;106371;1278;24087;-80